Time;durP1;ratioP1;P1;durP2;ratioP2;P2;SDS_P1;SDS_P2;PMS_P1;PMS_P2;Temp;Humidity;BMP_temperature;BMP_pressure;BME280_temperature;BME280_humidity;BME280_pressure;Samples;Min_cycle;Max_cycle;Signal;HPM_P1;HPM_P2
2021/11/29 00:01:20;;;;;;;4.03;2.42;;;0.10;99.90;;;;;;5017654;28;20479;-88
2021/11/29 00:03:46;;;;;;;4.28;2.58;;;0.10;99.90;;;;;;5034832;28;20119;-90
2021/11/29 00:06:11;;;;;;;5.25;2.47;;;0.10;99.90;;;;;;5023896;28;20053;-90
2021/11/29 00:08:37;;;;;;;4.35;2.35;;;0.10;99.90;;;;;;5026369;28;20032;-91
2021/11/29 00:11:06;;;;;;;4.90;2.30;;;0.10;99.90;;;;;;5041388;28;20040;-91
2021/11/29 00:13:31;;;;;;;5.13;2.38;;;0.10;99.90;;;;;;5024066;28;20443;-89
2021/11/29 00:15:57;;;;;;;4.53;2.35;;;0.20;99.90;;;;;;5040482;28;20055;-92
2021/11/29 00:18:27;;;;;;;3.80;2.42;;;0.40;99.90;;;;;;5038868;28;20033;-89
2021/11/29 00:20:53;;;;;;;5.30;2.38;;;0.40;99.90;;;;;;5040093;28;20021;-88
2021/11/29 00:23:18;;;;;;;5.07;2.97;;;0.50;99.90;;;;;;5030687;28;20109;-92
2021/11/29 00:25:45;;;;;;;9.52;2.80;;;0.80;99.90;;;;;;5019962;28;20546;-90
2021/11/29 00:28:11;;;;;;;5.25;2.40;;;0.90;99.90;;;;;;5019502;28;20021;-91
2021/11/29 00:30:39;;;;;;;4.72;2.42;;;1.00;99.90;;;;;;5019150;28;20474;-91
2021/11/29 00:33:05;;;;;;;6.68;2.40;;;1.10;99.90;;;;;;5019061;28;20501;-91
2021/11/29 00:35:31;;;;;;;5.80;2.80;;;1.10;99.90;;;;;;5022863;28;20089;-88
2021/11/29 00:37:57;;;;;;;5.05;2.25;;;1.20;99.90;;;;;;5020816;28;20552;-89
2021/11/29 00:40:23;;;;;;;4.35;2.38;;;1.30;99.90;;;;;;5021370;28;20106;-91
2021/11/29 00:42:49;;;;;;;3.80;1.85;;;1.40;99.90;;;;;;5016284;28;20080;-91
2021/11/29 00:45:15;;;;;;;4.05;1.88;;;1.40;99.90;;;;;;5028960;28;20025;-92
2021/11/29 00:47:42;;;;;;;5.00;1.60;;;1.40;99.90;;;;;;5023088;28;20033;-93
2021/11/29 00:50:09;;;;;;;3.63;1.42;;;1.30;99.90;;;;;;5037349;28;20028;-90
2021/11/29 00:52:35;;;;;;;3.33;1.25;;;1.30;99.90;;;;;;5038257;28;20031;-88
2021/11/29 00:55:00;;;;;;;3.22;1.10;;;1.30;99.90;;;;;;5028810;28;20025;-91
2021/11/29 00:57:26;;;;;;;2.75;1.23;;;1.30;99.90;;;;;;5029607;28;20128;-92
2021/11/29 00:59:52;;;;;;;3.58;1.35;;;1.30;99.90;;;;;;5020195;28;20013;-91
2021/11/29 01:02:18;;;;;;;3.28;1.30;;;1.30;99.90;;;;;;5021048;28;20016;-91
2021/11/29 01:04:44;;;;;;;3.70;1.70;;;1.30;99.90;;;;;;5038183;28;20020;-91
2021/11/29 01:07:10;;;;;;;3.40;2.25;;;1.30;99.90;;;;;;5037793;28;20475;-91
2021/11/29 01:09:36;;;;;;;3.10;1.10;;;1.30;99.90;;;;;;5024175;28;20033;-87
2021/11/29 01:12:02;;;;;;;5.15;1.23;;;1.20;99.90;;;;;;5017973;28;20041;-92
2021/11/29 01:14:28;;;;;;;3.53;1.00;;;1.20;99.90;;;;;;5018444;28;20029;-92
2021/11/29 01:16:54;;;;;;;5.13;0.90;;;1.10;99.90;;;;;;5018221;28;20033;-92
2021/11/29 01:19:20;;;;;;;3.30;0.88;;;1.10;99.90;;;;;;5017394;28;20041;-90
2021/11/29 01:21:45;;;;;;;1.98;0.80;;;1.00;99.90;;;;;;5018218;28;20029;-89
2021/11/29 01:24:11;;;;;;;2.22;0.60;;;1.00;99.90;;;;;;5018470;28;20029;-90
2021/11/29 01:26:37;;;;;;;2.35;0.90;;;0.90;99.90;;;;;;5024152;28;20033;-90
2021/11/29 01:29:03;;;;;;;1.73;0.70;;;0.90;99.90;;;;;;5037349;28;20028;-91
2021/11/29 01:31:29;;;;;;;1.63;0.73;;;0.90;99.90;;;;;;5039042;28;20470;-92
2021/11/29 01:33:55;;;;;;;1.42;0.80;;;0.90;99.90;;;;;;5039212;28;20013;-91
2021/11/29 01:36:21;;;;;;;4.13;1.30;;;0.80;99.90;;;;;;5039153;28;20053;-90
2021/11/29 01:38:46;;;;;;;1.60;0.98;;;0.80;99.90;;;;;;5031211;28;20029;-90
2021/11/29 01:41:16;;;;;;;4.32;0.93;;;0.80;99.90;;;;;;5030760;28;20069;-91
2021/11/29 01:43:42;;;;;;;1.63;0.65;;;0.80;99.90;;;;;;5038732;28;20176;-92
2021/11/29 01:46:08;;;;;;;2.83;0.60;;;0.80;99.90;;;;;;5037806;28;20798;-90
2021/11/29 01:48:33;;;;;;;2.45;0.85;;;0.90;99.90;;;;;;5022573;28;20065;-92
2021/11/29 01:50:59;;;;;;;3.90;1.02;;;0.90;99.90;;;;;;5026350;28;20032;-91
2021/11/29 01:53:28;;;;;;;3.38;1.13;;;0.90;99.90;;;;;;5019784;28;20057;-90
2021/11/29 01:55:58;;;;;;;2.45;0.82;;;0.90;99.90;;;;;;5021881;28;20040;-92
2021/11/29 01:58:27;;;;;;;3.13;1.00;;;0.90;99.90;;;;;;5019937;28;20029;-91
2021/11/29 02:00:57;;;;;;;5.13;1.30;;;0.90;99.90;;;;;;5018167;28;20022;-91
2021/11/29 02:03:24;;;;;;;4.30;1.40;;;0.80;99.90;;;;;;5030528;28;20021;-90
2021/11/29 02:05:51;;;;;;;5.35;1.27;;;0.90;99.90;;;;;;5038526;28;20052;-90
2021/11/29 02:08:17;;;;;;;3.65;1.30;;;0.90;99.90;;;;;;5017999;28;20056;-90
2021/11/29 02:10:44;;;;;;;3.92;1.20;;;0.90;99.90;;;;;;5017527;28;20037;-90
2021/11/29 02:13:10;;;;;;;4.35;1.48;;;0.90;99.90;;;;;;5017423;28;20022;-91
2021/11/29 02:15:37;;;;;;;3.85;1.40;;;0.90;99.90;;;;;;5001414;28;20025;-89
2021/11/29 02:18:04;;;;;;;2.70;1.20;;;0.90;99.90;;;;;;5019852;28;20040;-91
2021/11/29 02:20:31;;;;;;;2.83;1.15;;;0.90;99.90;;;;;;5055768;28;20266;-88
2021/11/29 02:22:57;;;;;;;3.30;0.80;;;0.90;99.90;;;;;;5028752;28;20026;-90
2021/11/29 02:25:23;;;;;;;2.53;1.10;;;0.90;99.90;;;;;;5047728;28;20394;-92
2021/11/29 02:27:51;;;;;;;5.05;1.02;;;0.90;99.90;;;;;;5039692;28;20025;-93
2021/11/29 02:30:19;;;;;;;2.50;0.98;;;0.80;99.90;;;;;;5039631;28;20025;-90
2021/11/29 02:32:45;;;;;;;1.60;1.05;;;0.80;99.90;;;;;;5039855;28;20033;-91
2021/11/29 02:35:11;;;;;;;2.20;0.88;;;0.80;99.90;;;;;;5037631;28;20397;-89
2021/11/29 02:37:37;;;;;;;2.55;1.35;;;0.80;99.90;;;;;;5037322;28;20042;-89
2021/11/29 02:40:04;;;;;;;2.67;1.10;;;0.90;99.90;;;;;;5019714;28;20037;-88
2021/11/29 02:42:29;;;;;;;2.38;1.08;;;0.80;99.90;;;;;;5029399;28;20041;-91
2021/11/29 02:44:58;;;;;;;1.48;0.80;;;0.80;99.90;;;;;;5032888;28;20374;-87
2021/11/29 02:47:24;;;;;;;2.72;1.00;;;0.80;99.90;;;;;;5031110;28;20029;-89
2021/11/29 02:49:50;;;;;;;2.30;0.90;;;0.80;99.90;;;;;;5020327;28;20159;-90
2021/11/29 02:52:21;;;;;;;2.22;0.90;;;0.70;99.90;;;;;;5034752;28;20029;-88
2021/11/29 02:54:48;;;;;;;1.45;0.60;;;0.70;99.90;;;;;;5038107;28;20035;-89
2021/11/29 02:57:17;;;;;;;2.45;0.85;;;0.70;99.90;;;;;;5036722;28;20504;-89
2021/11/29 02:59:43;;;;;;;1.73;0.70;;;0.70;99.90;;;;;;5037003;28;20402;-88
2021/11/29 03:02:14;;;;;;;1.00;0.55;;;0.70;99.90;;;;;;5027753;28;20017;-90
2021/11/29 03:04:40;;;;;;;1.70;0.85;;;0.70;99.90;;;;;;5030826;28;20009;-89
2021/11/29 03:07:07;;;;;;;1.30;0.60;;;0.70;99.90;;;;;;5041966;28;20032;-88
2021/11/29 03:09:33;;;;;;;3.25;0.85;;;0.70;99.90;;;;;;5040064;28;20032;-88
2021/11/29 03:11:59;;;;;;;3.85;0.80;;;0.70;99.90;;;;;;5042418;28;20021;-88
2021/11/29 03:14:26;;;;;;;1.88;0.70;;;0.70;99.90;;;;;;5053311;28;20033;-89
2021/11/29 03:16:54;;;;;;;3.65;0.80;;;0.70;99.90;;;;;;5050663;28;20116;-89
2021/11/29 03:19:20;;;;;;;1.20;0.68;;;0.80;99.90;;;;;;5048135;28;20059;-90
2021/11/29 03:21:46;;;;;;;1.50;0.70;;;0.80;99.90;;;;;;5054489;28;20012;-88
2021/11/29 03:24:11;;;;;;;1.00;0.60;;;0.80;99.90;;;;;;5048285;28;20089;-90
2021/11/29 03:26:38;;;;;;;1.38;0.60;;;0.80;99.90;;;;;;5046264;28;20025;-89
2021/11/29 03:29:08;;;;;;;1.85;0.70;;;0.80;99.90;;;;;;5047448;28;20036;-88
2021/11/29 03:31:34;;;;;;;1.00;0.50;;;0.70;99.90;;;;;;5071258;28;20033;-89
2021/11/29 03:34:01;;;;;;;1.30;0.70;;;0.70;99.90;;;;;;5056723;28;20013;-90
2021/11/29 03:36:29;;;;;;;1.73;0.52;;;0.70;99.90;;;;;;5062522;28;20047;-90
2021/11/29 03:38:56;;;;;;;0.88;0.40;;;0.70;99.90;;;;;;5062972;28;20036;-90
2021/11/29 03:41:22;;;;;;;3.67;0.70;;;0.70;99.90;;;;;;5044834;28;20060;-88
2021/11/29 03:43:48;;;;;;;1.20;0.63;;;0.70;99.90;;;;;;5043297;28;20036;-87
2021/11/29 03:46:15;;;;;;;2.25;0.88;;;0.60;99.90;;;;;;5041613;28;20037;-90
2021/11/29 03:48:40;;;;;;;3.17;0.90;;;0.70;99.90;;;;;;5041196;28;20097;-92
2021/11/29 03:51:06;;;;;;;1.40;0.90;;;0.70;99.90;;;;;;5041083;28;20037;-89
2021/11/29 03:53:32;;;;;;;2.15;0.95;;;0.70;99.90;;;;;;5037408;28;20045;-90
2021/11/29 03:55:58;;;;;;;3.33;0.90;;;0.70;99.90;;;;;;5041295;28;20071;-90
2021/11/29 03:58:24;;;;;;;1.00;0.77;;;0.70;99.90;;;;;;5029670;28;20545;-87
2021/11/29 04:00:50;;;;;;;2.65;0.82;;;0.60;99.90;;;;;;5023968;28;19998;-88
2021/11/29 04:03:16;;;;;;;1.55;0.80;;;0.60;99.90;;;;;;5023435;28;20017;-90
2021/11/29 04:05:41;;;;;;;2.05;0.90;;;0.60;99.90;;;;;;5022362;28;20044;-88
2021/11/29 04:08:07;;;;;;;1.95;0.90;;;0.50;99.90;;;;;;5021935;28;20433;-88
2021/11/29 04:10:33;;;;;;;2.55;0.90;;;0.50;99.90;;;;;;5039984;28;20052;-89
2021/11/29 04:12:59;;;;;;;1.77;0.90;;;0.50;99.90;;;;;;5022729;28;20029;-89
2021/11/29 04:15:24;;;;;;;2.25;1.25;;;0.50;99.90;;;;;;5022116;28;20490;-89
2021/11/29 04:17:50;;;;;;;2.13;0.93;;;0.50;99.90;;;;;;5022196;28;20033;-89
2021/11/29 04:20:16;;;;;;;2.63;1.10;;;0.50;99.90;;;;;;5021810;28;20107;-89
2021/11/29 04:22:45;;;;;;;3.65;1.48;;;0.40;99.90;;;;;;5021395;28;20498;-88
2021/11/29 04:25:13;;;;;;;2.78;1.23;;;0.40;99.90;;;;;;5020582;28;20017;-87
2021/11/29 04:27:40;;;;;;;3.38;1.67;;;0.40;99.90;;;;;;5020948;28;20049;-87
2021/11/29 04:30:11;;;;;;;2.85;1.23;;;0.40;99.90;;;;;;5021735;28;20088;-89
2021/11/29 04:32:37;;;;;;;2.58;1.38;;;0.40;99.90;;;;;;5021195;28;20494;-89
2021/11/29 04:35:04;;;;;;;2.70;1.55;;;0.40;99.90;;;;;;5022138;28;20022;-88
2021/11/29 04:37:29;;;;;;;3.65;1.48;;;0.40;99.90;;;;;;5038699;28;20061;-87
2021/11/29 04:39:55;;;;;;;2.97;1.40;;;0.40;99.90;;;;;;5020810;28;20014;-89
2021/11/29 04:42:21;;;;;;;1.60;0.90;;;0.40;99.90;;;;;;5020283;28;20241;-88
2021/11/29 04:44:46;;;;;;;3.67;1.20;;;0.30;99.90;;;;;;5019646;28;20033;-85
2021/11/29 04:47:12;;;;;;;2.20;1.17;;;0.30;99.90;;;;;;5037538;28;20025;-88
2021/11/29 04:49:37;;;;;;;2.15;1.30;;;0.30;99.90;;;;;;5020673;28;20021;-90
2021/11/29 04:52:04;;;;;;;3.35;1.35;;;0.30;99.90;;;;;;5038636;28;20029;-89
2021/11/29 04:54:29;;;;;;;3.60;1.42;;;0.30;99.90;;;;;;5020842;28;20022;-90
2021/11/29 04:56:55;;;;;;;5.10;2.00;;;0.40;99.90;;;;;;5019643;28;20024;-88
2021/11/29 04:59:20;;;;;;;3.67;1.80;;;0.50;99.90;;;;;;5019864;28;20017;-91
2021/11/29 05:01:46;;;;;;;3.10;1.90;;;0.50;99.90;;;;;;5038272;28;20052;-88
2021/11/29 05:04:12;;;;;;;4.28;2.03;;;0.50;99.90;;;;;;5036340;28;20025;-89
2021/11/29 05:06:38;;;;;;;3.20;1.65;;;0.60;99.90;;;;;;5020073;28;20413;-89
2021/11/29 05:09:05;;;;;;;2.97;1.70;;;0.50;99.90;;;;;;5019957;28;20017;-87
2021/11/29 05:11:31;;;;;;;3.33;1.65;;;0.60;99.90;;;;;;5019987;28;20021;-88
2021/11/29 05:13:57;;;;;;;4.50;1.85;;;0.50;99.90;;;;;;5020395;28;20025;-89
2021/11/29 05:16:23;;;;;;;3.30;1.33;;;0.60;99.90;;;;;;5019460;28;20025;-87
2021/11/29 05:18:48;;;;;;;2.28;1.40;;;0.60;99.90;;;;;;5036946;28;20044;-84
2021/11/29 05:21:15;;;;;;;3.97;1.48;;;0.60;99.90;;;;;;5036824;28;20360;-89
2021/11/29 05:23:41;;;;;;;5.50;2.05;;;0.70;99.90;;;;;;5019321;28;20495;-88
2021/11/29 05:26:06;;;;;;;4.40;2.00;;;0.80;99.90;;;;;;5019614;28;20029;-89
2021/11/29 05:28:32;;;;;;;4.43;2.15;;;0.90;99.90;;;;;;5023160;28;20026;-88
2021/11/29 05:30:57;;;;;;;6.55;2.63;;;0.80;99.90;;;;;;5021182;28;20024;-90
2021/11/29 05:33:23;;;;;;;7.85;2.90;;;0.90;99.90;;;;;;5020706;28;20021;-87
2021/11/29 05:35:49;;;;;;;6.63;2.50;;;0.80;99.90;;;;;;5039064;28;20055;-88
2021/11/29 05:38:15;;;;;;;5.47;2.50;;;0.80;99.90;;;;;;5022128;28;20056;-95
2021/11/29 05:40:40;;;;;;;6.43;3.28;;;0.80;99.90;;;;;;5021717;28;20079;-92
2021/11/29 05:43:06;;;;;;;4.95;2.67;;;0.80;99.90;;;;;;5021137;28;20084;-91
2021/11/29 05:45:32;;;;;;;4.47;2.50;;;0.70;99.90;;;;;;5020533;28;20492;-91
2021/11/29 05:47:58;;;;;;;5.43;2.42;;;0.60;99.90;;;;;;5020430;28;20029;-89
2021/11/29 05:50:24;;;;;;;6.07;3.03;;;0.60;99.90;;;;;;5020641;28;20460;-88
2021/11/29 05:52:50;;;;;;;7.20;3.70;;;0.60;99.90;;;;;;5020260;28;20034;-93
2021/11/29 05:55:16;;;;;;;8.18;3.80;;;0.60;99.90;;;;;;5025876;28;20025;-91
2021/11/29 05:57:46;;;;;;;6.18;3.83;;;0.60;99.90;;;;;;5023478;28;20037;-92
2021/11/29 06:00:16;;;;;;;6.45;4.30;;;0.60;99.90;;;;;;5018462;28;20026;-91
2021/11/29 06:02:41;;;;;;;5.43;4.10;;;0.60;99.90;;;;;;5035978;28;20025;-92
2021/11/29 06:05:09;;;;;;;10.57;4.20;;;0.60;99.90;;;;;;5032398;28;20024;-93
2021/11/29 06:07:35;;;;;;;8.38;5.00;;;0.60;99.90;;;;;;5037678;28;20018;-94
2021/11/29 06:10:02;;;;;;;7.65;4.80;;;0.70;99.90;;;;;;5036835;28;20026;-94
2021/11/29 06:12:27;;;;;;;12.77;5.90;;;0.70;99.90;;;;;;5035865;28;20029;-92
2021/11/29 06:14:53;;;;;;;8.50;5.63;;;0.70;99.90;;;;;;5037732;28;20033;-92
2021/11/29 06:17:18;;;;;;;10.13;5.40;;;0.80;99.90;;;;;;5037494;28;20038;-93
2021/11/29 06:19:44;;;;;;;9.65;5.50;;;0.70;99.90;;;;;;5050779;28;20045;-92
2021/11/29 06:22:10;;;;;;;8.85;5.20;;;0.80;99.90;;;;;;5029816;28;20492;-91
2021/11/29 06:24:35;;;;;;;8.60;5.78;;;0.80;99.90;;;;;;5043348;28;20027;-87
2021/11/29 06:27:01;;;;;;;10.45;4.75;;;0.80;99.90;;;;;;5036309;28;20032;-90
2021/11/29 06:29:27;;;;;;;10.40;5.63;;;0.80;99.90;;;;;;5031336;28;20112;-90
2021/11/29 06:31:52;;;;;;;10.88;6.53;;;0.70;99.90;;;;;;5029505;28;20022;-88
2021/11/29 06:34:18;;;;;;;10.73;6.18;;;0.80;99.90;;;;;;5022881;28;20021;-89
2021/11/29 06:36:43;;;;;;;15.88;7.93;;;0.80;99.90;;;;;;5024022;28;20091;-89
2021/11/29 06:39:09;;;;;;;12.43;7.75;;;0.80;99.90;;;;;;5024946;28;20068;-89
2021/11/29 06:41:35;;;;;;;12.27;8.35;;;0.90;99.90;;;;;;5042741;28;20132;-90
2021/11/29 06:44:00;;;;;;;12.90;8.13;;;0.90;99.90;;;;;;5025260;28;20027;-89
2021/11/29 06:46:26;;;;;;;13.00;8.05;;;0.90;99.90;;;;;;5023642;28;20053;-89
2021/11/29 06:48:52;;;;;;;13.80;8.00;;;0.90;99.90;;;;;;5022928;28;20021;-90
2021/11/29 06:51:23;;;;;;;15.27;8.98;;;0.90;99.90;;;;;;5025791;28;20487;-91
2021/11/29 06:53:49;;;;;;;13.65;8.43;;;0.90;99.90;;;;;;5043433;28;20080;-90
2021/11/29 06:56:15;;;;;;;12.60;7.78;;;1.00;99.90;;;;;;5050417;28;20486;-90
2021/11/29 06:58:41;;;;;;;12.48;7.97;;;1.00;99.90;;;;;;5036585;28;20057;-89
2021/11/29 07:01:07;;;;;;;10.50;7.80;;;0.90;99.90;;;;;;5031687;28;20049;-89
2021/11/29 07:03:34;;;;;;;11.05;7.88;;;1.00;99.90;;;;;;5041837;28;20032;-88
2021/11/29 07:06:01;;;;;;;10.90;7.72;;;1.10;99.90;;;;;;5050515;28;20025;-90
2021/11/29 07:08:26;;;;;;;10.95;8.80;;;1.10;99.90;;;;;;5044087;28;20017;-92
2021/11/29 07:10:52;;;;;;;12.07;7.85;;;1.20;99.90;;;;;;5033698;28;20099;-90
2021/11/29 07:13:18;;;;;;;11.07;7.63;;;1.20;99.90;;;;;;5030155;28;20040;-91
2021/11/29 07:15:45;;;;;;;12.38;7.05;;;1.30;99.90;;;;;;5025557;28;20060;-91
2021/11/29 07:18:13;;;;;;;10.85;7.03;;;1.30;99.90;;;;;;5024019;28;20053;-91
2021/11/29 07:20:42;;;;;;;13.65;7.30;;;1.30;99.90;;;;;;5024388;28;20018;-90
2021/11/29 07:23:07;;;;;;;11.60;6.75;;;1.40;99.90;;;;;;5036478;28;20021;-91
2021/11/29 07:25:33;;;;;;;10.20;6.53;;;1.40;99.90;;;;;;5044328;28;20044;-91
2021/11/29 07:27:59;;;;;;;11.48;6.93;;;1.50;99.90;;;;;;5039514;28;20029;-89
2021/11/29 07:30:27;;;;;;;8.73;5.95;;;1.50;99.90;;;;;;5043568;28;20025;-89
2021/11/29 07:32:54;;;;;;;10.98;6.63;;;1.50;99.90;;;;;;5026848;28;20422;-90
2021/11/29 07:35:25;;;;;;;11.70;7.90;;;1.50;99.90;;;;;;5026699;28;20541;-89
2021/11/29 07:37:52;;;;;;;13.75;7.10;;;1.60;99.90;;;;;;5037635;28;20041;-91
2021/11/29 07:40:19;;;;;;;12.07;7.05;;;1.60;99.90;;;;;;5024491;28;20017;-91
2021/11/29 07:42:45;;;;;;;12.73;6.80;;;1.70;99.90;;;;;;5029672;28;20054;-91
2021/11/29 07:45:12;;;;;;;9.75;6.70;;;1.80;99.90;;;;;;5039833;28;20033;-91
2021/11/29 07:47:43;;;;;;;14.90;7.32;;;1.80;99.90;;;;;;5028972;28;20022;-90
2021/11/29 07:50:13;;;;;;;12.95;6.90;;;1.80;99.90;;;;;;5044779;28;20462;-90
2021/11/29 07:52:39;;;;;;;11.52;6.60;;;1.80;99.90;;;;;;5044597;28;20033;-90
2021/11/29 07:55:07;;;;;;;11.00;6.07;;;1.80;99.90;;;;;;5034648;28;20029;-90
2021/11/29 07:57:34;;;;;;;13.18;6.15;;;1.90;99.90;;;;;;5034236;28;20037;-90
2021/11/29 08:00:08;;;;;;;11.40;6.38;;;1.90;99.90;;;;;;5041861;28;20426;-89
2021/11/29 08:02:33;;;;;;;;;;;2.00;99.90;;;;;;5035755;28;20021;-89
2021/11/29 08:05:00;;;;;;;12.35;6.55;;;2.00;99.90;;;;;;5022045;28;20000;-91
2021/11/29 08:07:26;;;;;;;14.18;6.40;;;2.00;99.90;;;;;;5021926;28;20017;-90
2021/11/29 08:09:53;;;;;;;13.13;7.18;;;2.00;99.90;;;;;;5022506;28;20029;-90
2021/11/29 08:12:19;;;;;;;13.57;6.35;;;2.10;99.90;;;;;;5025068;28;20120;-89
2021/11/29 08:14:44;;;;;;;14.73;6.90;;;2.10;99.90;;;;;;5034806;28;20107;-91
2021/11/29 08:17:10;;;;;;;11.55;6.72;;;2.10;99.90;;;;;;5031563;28;20021;-92
2021/11/29 08:19:36;;;;;;;13.32;7.10;;;2.20;99.90;;;;;;5060569;28;20033;-88
2021/11/29 08:22:02;;;;;;;11.20;5.95;;;2.20;99.90;;;;;;5027796;28;20025;-91
2021/11/29 08:24:27;;;;;;;10.27;5.22;;;2.20;99.90;;;;;;5027117;28;20032;-91
2021/11/29 08:26:53;;;;;;;11.73;5.03;;;2.30;99.90;;;;;;5042057;28;20045;-91
2021/11/29 08:29:18;;;;;;;8.15;4.47;;;2.30;99.90;;;;;;5031175;28;20144;-87
2021/11/29 08:31:44;;;;;;;9.45;4.15;;;2.30;99.90;;;;;;5034337;28;20474;-89
2021/11/29 08:34:10;;;;;;;7.55;4.03;;;2.30;99.90;;;;;;5025138;28;20021;-89
2021/11/29 08:36:36;;;;;;;6.60;3.55;;;2.40;99.90;;;;;;5041332;28;20017;-91
2021/11/29 08:39:07;;;;;;;9.40;3.80;;;2.50;99.90;;;;;;5040807;28;20123;-91
2021/11/29 08:41:33;;;;;;;8.98;3.00;;;2.50;99.90;;;;;;5029026;28;20053;-91
2021/11/29 08:44:00;;;;;;;8.65;3.10;;;2.50;99.90;;;;;;5021520;28;20082;-91
2021/11/29 08:46:26;;;;;;;6.43;2.40;;;2.60;99.90;;;;;;5022543;28;20025;-90
2021/11/29 08:48:52;;;;;;;6.32;2.20;;;2.70;99.90;;;;;;5021432;28;20112;-91
2021/11/29 08:51:18;;;;;;;5.28;1.85;;;2.70;99.90;;;;;;5021226;28;20104;-89
2021/11/29 08:53:45;;;;;;;5.22;1.92;;;2.70;99.90;;;;;;5033777;28;20446;-91
2021/11/29 08:56:11;;;;;;;5.15;1.48;;;2.80;99.90;;;;;;5024080;28;20014;-88
2021/11/29 08:58:40;;;;;;;4.60;1.60;;;2.90;99.90;;;;;;5036752;28;20061;-90
2021/11/29 09:01:06;;;;;;;5.15;1.52;;;2.90;99.90;;;;;;5032192;28;20124;-90
2021/11/29 09:03:32;;;;;;;3.85;1.30;;;2.90;99.90;;;;;;5031792;28;20506;-91
2021/11/29 09:05:58;;;;;;;6.47;1.83;;;3.00;99.90;;;;;;5021292;28;20014;-88
2021/11/29 09:08:27;;;;;;;4.63;1.30;;;3.30;99.90;;;;;;5022505;28;20029;-91
2021/11/29 09:10:53;;;;;;;2.72;1.20;;;3.90;99.90;;;;;;5027860;28;20032;-88
2021/11/29 09:13:19;;;;;;;3.58;1.40;;;5.00;99.90;;;;;;5041304;28;20040;-90
2021/11/29 09:15:48;;;;;;;2.13;0.80;;;6.00;99.90;;;;;;5040611;28;20013;-86
2021/11/29 09:18:16;;;;;;;3.42;1.00;;;7.00;99.90;;;;;;5005907;28;20049;-91
2021/11/29 09:20:43;;;;;;;6.32;1.40;;;7.60;99.90;;;;;;5025201;28;20028;-92
2021/11/29 09:23:14;;;;;;;3.00;1.00;;;8.40;99.90;;;;;;5037568;28;20031;-89
2021/11/29 09:25:42;;;;;;;3.63;0.70;;;9.50;99.90;;;;;;5058209;22;20038;-92
2021/11/29 09:28:23;;;;;;;2.58;0.70;;;10.40;99.90;;;;;;5020938;28;20536;-91
2021/11/29 09:30:55;;;;;;;1.95;0.50;;;11.00;99.90;;;;;;5044775;28;20032;-91
2021/11/29 09:33:24;;;;;;;1.85;0.65;;;10.70;99.90;;;;;;5050526;28;20112;-93
2021/11/29 09:36:02;;;;;;;1.88;0.50;;;10.50;99.90;;;;;;5039298;28;20112;-91
2021/11/29 09:38:38;;;;;;;2.33;0.60;;;10.60;99.90;;;;;;5025283;28;20044;-91
2021/11/29 09:41:31;;;;;;;3.53;1.00;;;10.20;99.90;;;;;;5016636;28;20087;-91
2021/11/29 09:44:32;;;;;;;4.00;1.00;;;10.10;99.90;;;;;;5063428;28;20016;-92
2021/11/29 09:47:26;;;;;;;1.05;0.50;;;9.60;99.90;;;;;;5036068;28;20287;-91
2021/11/29 09:50:29;;;;;;;3.97;0.88;;;8.70;99.90;;;;;;5026689;28;20022;-92
2021/11/29 09:53:03;;;;;;;3.33;1.15;;;7.70;99.90;;;;;;5049590;28;20032;-92
2021/11/29 09:56:12;;;;;;;4.38;1.10;;;7.10;99.90;;;;;;5035946;28;20034;-92
2021/11/29 09:58:41;;;;;;;1.50;0.70;;;6.60;99.90;;;;;;5026754;28;20033;-92
2021/11/29 10:01:33;;;;;;;3.95;0.88;;;6.30;99.90;;;;;;5040486;28;20021;-90
2021/11/29 10:04:05;;;;;;;2.65;0.90;;;6.10;99.90;;;;;;5032278;28;20029;-92
2021/11/29 10:07:05;;;;;;;2.85;0.80;;;5.90;99.90;;;;;;5034329;28;20028;-91
2021/11/29 10:09:42;;;;;;;3.35;0.90;;;5.80;99.90;;;;;;5050523;28;20127;-90
2021/11/29 10:12:32;;;;;;;2.17;0.73;;;5.70;99.90;;;;;;5042289;28;20025;-91
2021/11/29 10:15:36;;;;;;;3.05;0.68;;;5.60;99.90;;;;;;5046502;28;20037;-90
2021/11/29 10:18:24;;;;;;;1.98;0.63;;;5.50;99.90;;;;;;5064824;28;20029;-89
2021/11/29 10:21:15;;;;;;;2.78;0.52;;;5.50;99.90;;;;;;5053111;28;20073;-91
2021/11/29 10:24:05;;;;;;;;;;;;;;;;;;;;;
2021/11/29 10:26:39;;;;;;;1.50;0.55;;;5.50;99.90;;;;;;5029243;28;20119;-91
2021/11/29 10:29:29;;;;;;;2.90;0.80;;;5.50;99.90;;;;;;5025347;28;20027;-90
2021/11/29 10:32:00;;;;;;;1.77;0.80;;;5.60;99.90;;;;;;5013311;28;20025;-91
2021/11/29 10:34:30;;;;;;;3.20;1.10;;;5.70;99.90;;;;;;5045736;28;20052;-90
2021/11/29 10:37:09;;;;;;;2.88;1.00;;;5.80;99.90;;;;;;5035156;28;20084;-91
2021/11/29 10:39:51;;;;;;;2.80;1.20;;;6.10;99.90;;;;;;5074462;28;20029;-91
2021/11/29 10:42:29;;;;;;;3.58;0.90;;;6.20;99.90;;;;;;5056894;28;20097;-90
2021/11/29 10:45:03;;;;;;;2.58;0.80;;;6.30;99.90;;;;;;5039872;28;20085;-89
2021/11/29 10:47:54;;;;;;;6.25;1.20;;;6.30;99.90;;;;;;5010868;28;20048;-91
2021/11/29 10:50:46;;;;;;;3.25;0.80;;;6.20;99.90;;;;;;5018523;28;20025;-90
2021/11/29 10:54:15;;;;;;;2.97;1.00;;;6.20;99.90;;;;;;5053691;28;20017;-91
2021/11/29 10:57:02;;;;;;;2.60;0.95;;;6.20;99.90;;;;;;5045394;28;20033;-91
2021/11/29 10:59:59;;;;;;;;;;;;;;;;;;;;;
2021/11/29 11:02:46;;;;;;;;;;;;;;;;;;;;;
2021/11/29 11:05:22;;;;;;;2.33;0.98;;;6.50;99.90;;;;;;5038294;28;20105;-91
2021/11/29 11:08:16;;;;;;;;;;;;;;;;;;;;;
2021/11/29 11:11:14;;;;;;;;;;;;;;;;;;;;;
2021/11/29 11:14:33;;;;;;;3.15;1.25;;;8.10;99.90;;;;;;5067666;28;20080;-92
2021/11/29 11:17:09;;;;;;;1.90;1.02;;;8.40;99.90;;;;;;5037907;28;20453;-91
2021/11/29 11:19:51;;;;;;;3.58;1.20;;;9.40;99.90;;;;;;5035181;28;20116;-90
2021/11/29 11:22:38;;;;;;;2.08;0.77;;;10.40;99.90;;;;;;5043101;28;20045;-93
2021/11/29 11:25:34;;;;;;;3.90;1.33;;;10.70;99.90;;;;;;5033420;28;20034;-93
2021/11/29 11:28:19;;;;;;;;;;;;;;;;;;;;;
2021/11/29 11:31:01;;;;;;;2.83;0.82;;;9.30;99.90;;;;;;5016050;28;20106;-91
2021/11/29 11:33:51;;;;;;;1.42;0.85;;;8.50;99.90;;;;;;4997839;28;20014;-91
2021/11/29 11:36:26;;;;;;;3.92;1.20;;;8.30;99.90;;;;;;5006785;28;20080;-91
2021/11/29 11:38:53;;;;;;;2.88;1.00;;;8.00;99.90;;;;;;5006367;28;20378;-89
2021/11/29 11:41:26;;;;;;;1.83;0.77;;;7.80;99.90;;;;;;5009083;28;20335;-93
2021/11/29 11:44:23;;;;;;;3.83;1.10;;;8.20;99.90;;;;;;4997297;28;20137;-91
2021/11/29 11:47:08;;;;;;;;;;;;;;;;;;;;;
2021/11/29 11:50:13;;;;;;;5.10;1.30;;;8.50;99.90;;;;;;5006408;28;20129;-92
2021/11/29 11:52:59;;;;;;;2.75;0.90;;;8.20;99.90;;;;;;5004904;28;20109;-92
2021/11/29 11:55:53;;;;;;;3.58;1.20;;;7.90;99.90;;;;;;5026838;28;20084;-92
2021/11/29 11:58:58;;;;;;;2.95;1.00;;;7.70;99.90;;;;;;4993839;28;20034;-92
2021/11/29 12:01:34;;;;;;;5.68;1.27;;;7.60;99.90;;;;;;4992449;28;20042;-92
2021/11/29 12:04:43;;;;;;;2.75;1.02;;;7.60;99.90;;;;;;5023128;28;20090;-92
2021/11/29 12:07:46;;;;;;;2.58;0.88;;;7.60;99.90;;;;;;5004454;28;20520;-91
2021/11/29 12:11:05;;;;;;;;;;;;;;;;;;;;;
2021/11/29 12:17:33;;;;;;;;;;;;;;;;;;;;;
2021/11/29 12:20:26;;;;;;;;;;;;;;;;;;;;;
2021/11/29 12:23:22;;;;;;;3.13;1.40;;;7.30;99.90;;;;;;5002160;28;20109;-93
2021/11/29 12:26:19;;;;;;;;;;;;;;;;;;;;;
2021/11/29 12:29:08;;;;;;;2.53;1.13;;;6.90;99.90;;;;;;5019590;28;20050;-92
2021/11/29 12:35:18;;;;;;;;;;;;;;;;;;;;;
2021/11/29 12:38:40;;;;;;;3.30;1.17;;;6.60;99.90;;;;;;5010427;28;20429;-91
2021/11/29 12:42:25;;;;;;;;;;;;;;;;;;;;;
2021/11/29 12:45:10;;;;;;;3.63;1.60;;;6.70;99.90;;;;;;4903956;29;20475;-93
2021/11/29 12:48:06;;;;;;;2.28;1.30;;;6.60;99.90;;;;;;5019891;28;20459;-92
2021/11/29 12:50:37;;;;;;;5.22;1.67;;;6.50;99.90;;;;;;4997452;28;20073;-91
2021/11/29 12:53:55;;;;;;;2.65;1.70;;;6.60;99.90;;;;;;5003296;28;20026;-92
2021/11/29 12:57:19;;;;;;;;;;;;;;;;;;;;;
2021/11/29 13:00:28;;;;;;;4.72;1.75;;;6.70;99.90;;;;;;4974757;28;20038;-91
2021/11/29 13:03:34;;;;;;;4.55;1.70;;;6.70;99.90;;;;;;5003473;28;20121;-92
2021/11/29 13:06:07;;;;;;;2.17;1.50;;;6.70;99.90;;;;;;5001661;28;20056;-91
2021/11/29 13:08:59;;;;;;;3.42;1.73;;;6.80;99.90;;;;;;4996678;28;20017;-91
2021/11/29 13:12:12;;;;;;;3.70;1.83;;;6.90;99.90;;;;;;5007468;28;20019;-89
2021/11/29 13:14:38;;;;;;;4.28;2.30;;;7.10;99.90;;;;;;4995645;28;20194;-90
2021/11/29 13:17:30;;;;;;;3.33;1.70;;;7.90;99.90;;;;;;5001658;28;20028;-92
2021/11/29 13:20:01;;;;;;;3.58;1.35;;;9.10;99.90;;;;;;5005203;28;20152;-92
2021/11/29 13:23:02;;;;;;;5.40;1.58;;;9.90;99.90;;;;;;5008821;28;20038;-91
2021/11/29 13:25:35;;;;;;;2.88;1.50;;;10.50;99.90;;;;;;4971141;28;20035;-93
2021/11/29 13:28:37;;;;;;;;;;;;;;;;;;;;;
2021/11/29 13:31:21;;;;;;;3.70;1.98;;;9.50;99.90;;;;;;5031347;28;19943;-93
2021/11/29 13:34:40;;;;;;;;;;;;;;;;;;;;;
2021/11/29 13:37:24;;;;;;;2.20;1.50;;;8.30;99.90;;;;;;5015324;28;20126;-92
2021/11/29 13:52:38;;;;;;;;;;;;;;;;;;;;;
2021/11/29 13:56:32;;;;;;;3.22;1.70;;;7.10;99.90;;;;;;4907888;29;20033;-90
2021/11/29 13:59:33;;;;;;;;;;;;;;;;;;;;;
2021/11/29 14:02:45;;;;;;;;;;;;;;;;;;;;;
2021/11/29 14:06:05;;;;;;;;;;;;;;;;;;;;;
2021/11/29 14:09:14;;;;;;;;;;;;;;;;;;;;;
2021/11/29 14:12:39;;;;;;;;;;;;;;;;;;;;;
2021/11/29 14:16:40;;;;;;;;;;;;;;;;;;;;;